Time;durP1;ratioP1;P1;durP2;ratioP2;P2;SDS_P1;SDS_P2;PMS_P1;PMS_P2;Temp;Humidity;BMP_temperature;BMP_pressure;BME280_temperature;BME280_humidity;BME280_pressure;Samples;Min_cycle;Max_cycle;Signal;HPM_P1;HPM_P2
2022/06/10 00:01:49;;;;;;;4.73;2.40;;;;;10.00;94630.00;;;;7391189;19;20152;-77
2022/06/10 00:04:16;;;;;;;10.30;2.75;;;;;10.10;94630.00;;;;7390462;19;20649;-76
2022/06/10 00:06:45;;;;;;;8.55;3.05;;;;;10.30;94621.00;;;;7391170;19;20527;-76
2022/06/10 00:09:19;;;;;;;9.40;2.45;;;;;10.10;94628.00;;;;7391413;19;20609;-76
2022/06/10 00:11:46;;;;;;;7.70;2.63;;;;;10.20;94631.00;;;;7390198;19;20136;-77
2022/06/10 00:14:14;;;;;;;9.35;2.83;;;;;10.20;94636.00;;;;7390012;19;20132;-76
2022/06/10 00:16:50;;;;;;;10.45;2.90;;;;;10.10;94628.00;;;;7391072;19;20140;-76
2022/06/10 00:19:18;;;;;;;8.80;2.53;;;;;10.10;94630.00;;;;7390933;19;20634;-77
2022/06/10 00:21:45;;;;;;;5.85;2.78;;;;;10.00;94629.00;;;;7390896;19;20152;-76
2022/06/10 00:24:22;;;;;;;6.78;2.40;;;;;10.00;94629.00;;;;7391836;19;20120;-76
2022/06/10 00:26:52;;;;;;;6.40;2.60;;;;;9.90;94633.00;;;;7393733;19;20132;-79
2022/06/10 00:29:19;;;;;;;7.55;2.63;;;;;9.90;94626.00;;;;7390615;19;20144;-76
2022/06/10 00:32:01;;;;;;;5.53;2.60;;;;;9.80;94633.00;;;;7391142;19;20602;-76
2022/06/10 00:34:31;;;;;;;8.63;2.75;;;;;9.70;94637.00;;;;7390387;19;20160;-78
2022/06/10 00:37:06;;;;;;;7.33;2.73;;;;;9.90;94636.00;;;;7390184;19;20148;-78
2022/06/10 00:39:34;;;;;;;12.85;2.92;;;;;9.90;94642.00;;;;7390256;19;20671;-77
2022/06/10 00:42:04;;;;;;;8.93;2.87;;;;;9.90;94644.00;;;;7389852;19;20156;-77
2022/06/10 00:44:48;;;;;;;8.13;2.65;;;;;9.80;94633.00;;;;7390407;19;20568;-78
2022/06/10 00:47:50;;;;;;;7.53;2.83;;;;;9.80;94635.00;;;;7390802;19;20140;-77
2022/06/10 00:50:30;;;;;;;7.13;2.90;;;;;9.70;94637.00;;;;7388696;19;20167;-77
2022/06/10 00:53:07;;;;;;;6.22;3.17;;;;;9.70;94643.00;;;;7388707;19;20632;-76
2022/06/10 00:55:45;;;;;;;8.88;2.72;;;;;9.60;94639.00;;;;7391405;19;20947;-77
2022/06/10 00:58:32;;;;;;;7.10;2.80;;;;;9.60;94650.00;;;;7391142;19;20125;-77
2022/06/10 01:01:07;;;;;;;10.57;3.27;;;;;9.70;94636.00;;;;7389500;19;20129;-76
2022/06/10 01:03:36;;;;;;;6.70;2.50;;;;;9.70;94652.00;;;;7389756;19;20157;-77
2022/06/10 01:06:04;;;;;;;7.07;3.10;;;;;9.60;94646.00;;;;7390513;19;20141;-77
2022/06/10 01:08:39;;;;;;;8.30;2.90;;;;;9.70;94641.00;;;;7389274;19;20163;-77
2022/06/10 01:11:30;;;;;;;7.60;2.97;;;;;9.60;94641.00;;;;7389044;19;20152;-76
2022/06/10 01:14:10;;;;;;;7.70;2.67;;;;;9.80;94639.00;;;;7388740;19;20144;-76
2022/06/10 01:16:47;;;;;;;6.70;2.70;;;;;9.80;94627.00;;;;7387728;19;20469;-76
2022/06/10 01:19:35;;;;;;;5.07;2.73;;;;;9.70;94644.00;;;;7388382;19;20529;-77
2022/06/10 01:22:21;;;;;;;7.63;2.90;;;;;9.60;94639.00;;;;7389152;19;20145;-77
2022/06/10 01:25:28;;;;;;;10.33;2.87;;;;;9.40;94636.00;;;;7389925;19;20169;-77
2022/06/10 01:28:33;;;;;;;7.57;3.17;;;;;9.40;94640.00;;;;7388756;19;20135;-77
2022/06/10 01:31:24;;;;;;;11.20;3.13;;;;;9.70;94637.00;;;;7386849;19;20144;-77
2022/06/10 01:34:21;;;;;;;10.38;2.70;;;;;9.80;94632.00;;;;7389342;19;20148;-76
2022/06/10 01:37:22;;;;;;;9.97;3.30;;;;;9.70;94639.00;;;;7389658;19;20489;-77
2022/06/10 01:40:05;;;;;;;10.20;3.77;;;;;9.70;94645.00;;;;7388586;19;20548;-77
2022/06/10 01:43:04;;;;;;;10.48;3.28;;;;;9.90;94640.00;;;;7388468;19;20600;-76
2022/06/10 01:45:52;;;;;;;12.60;3.17;;;;;10.10;94641.00;;;;7388078;19;20127;-77
2022/06/10 01:48:37;;;;;;;8.70;3.13;;;;;10.30;94645.00;;;;7389033;19;20167;-76
2022/06/10 01:51:40;;;;;;;6.70;3.10;;;;;10.30;94646.00;;;;7387057;19;20615;-77
2022/06/10 01:54:40;;;;;;;5.07;2.65;;;;;10.20;94642.00;;;;7388510;19;20145;-77
2022/06/10 01:57:15;;;;;;;9.00;3.00;;;;;10.20;94642.00;;;;7387473;19;20129;-77
2022/06/10 01:59:59;;;;;;;8.70;3.17;;;;;10.40;94645.00;;;;7388921;19;20156;-77
2022/06/10 02:02:32;;;;;;;12.53;3.40;;;;;10.20;94645.00;;;;7387989;19;20716;-76
2022/06/10 02:05:16;;;;;;;11.13;3.78;;;;;10.00;94649.00;;;;7387163;19;20152;-77
2022/06/10 02:07:49;;;;;;;6.20;2.72;;;;;9.90;94653.00;;;;7389141;19;20129;-76
2022/06/10 02:10:38;;;;;;;17.10;3.50;;;;;9.90;94652.00;;;;7387548;19;20152;-76
2022/06/10 02:13:11;;;;;;;8.13;3.08;;;;;10.10;94649.00;;;;7388441;19;20156;-77
2022/06/10 02:15:59;;;;;;;5.70;2.37;;;;;10.20;94654.00;;;;7387927;19;20160;-76
2022/06/10 02:18:35;;;;;;;8.07;2.77;;;;;10.20;94649.00;;;;7389586;19;20698;-75
2022/06/10 02:21:26;;;;;;;10.43;3.10;;;;;10.20;94658.00;;;;7386571;19;20228;-76
2022/06/10 02:24:16;;;;;;;4.63;2.60;;;;;10.20;94650.00;;;;7388518;19;20162;-76
2022/06/10 02:26:53;;;;;;;7.93;3.20;;;;;10.30;94651.00;;;;7385062;19;20161;-76
2022/06/10 02:29:29;;;;;;;9.15;3.30;;;;;10.40;94654.00;;;;7385813;19;20144;-76
2022/06/10 02:32:05;;;;;;;8.10;2.80;;;;;10.20;94661.00;;;;7386173;19;20150;-77
2022/06/10 02:34:39;;;;;;;11.60;3.00;;;;;10.20;94658.00;;;;7387263;19;20184;-77
2022/06/10 02:37:57;;;;;;;7.80;3.05;;;;;10.10;94664.00;;;;7387623;19;20157;-77
2022/06/10 02:40:40;;;;;;;6.77;2.97;;;;;9.90;94658.00;;;;7387078;19;20496;-78
2022/06/10 02:43:44;;;;;;;15.13;3.30;;;;;10.10;94657.00;;;;7387273;19;20220;-77
2022/06/10 02:46:36;;;;;;;10.55;3.10;;;;;10.00;94665.00;;;;7385765;19;20140;-76
2022/06/10 02:49:16;;;;;;;6.63;2.90;;;;;10.00;94662.00;;;;7385803;19;20612;-78
2022/06/10 02:51:52;;;;;;;8.23;3.03;;;;;9.80;94665.00;;;;7383729;19;20176;-79
2022/06/10 02:54:38;;;;;;;11.02;2.70;;;;;9.60;94664.00;;;;7386261;19;20148;-78
2022/06/10 02:57:27;;;;;;;8.43;3.43;;;;;9.70;94674.00;;;;7384694;19;20158;-77
2022/06/10 03:02:56;;;;;;;9.20;3.05;;;;;9.40;94684.00;;;;7386067;19;20599;-77
2022/06/10 03:05:51;;;;;;;8.67;3.17;;;;;9.50;94689.00;;;;7385980;19;20664;-77
2022/06/10 03:08:37;;;;;;;8.50;3.07;;;;;9.50;94685.00;;;;7390629;19;20619;-77
2022/06/10 03:11:15;;;;;;;9.43;3.50;;;;;9.50;94680.00;;;;7393852;19;20159;-77
2022/06/10 03:14:08;;;;;;;8.13;3.33;;;;;9.60;94692.00;;;;7392786;19;20782;-78
2022/06/10 03:16:53;;;;;;;14.13;3.10;;;;;9.60;94696.00;;;;7394265;19;20685;-77
2022/06/10 03:19:35;;;;;;;7.77;3.13;;;;;9.70;94695.00;;;;7390195;19;20574;-77
2022/06/10 03:22:41;;;;;;;5.77;2.97;;;;;10.00;94690.00;;;;7390578;19;20169;-77
2022/06/10 03:25:19;;;;;;;8.68;3.13;;;;;10.00;94690.00;;;;7392799;19;20455;-77
2022/06/10 03:28:10;;;;;;;5.05;2.83;;;;;10.10;94683.00;;;;7393036;19;21213;-78
2022/06/10 03:30:57;;;;;;;5.25;3.13;;;;;10.10;94692.00;;;;7391878;19;20260;-77
2022/06/10 03:33:40;;;;;;;7.10;2.92;;;;;10.10;94688.00;;;;7394904;19;20650;-77
2022/06/10 03:36:20;;;;;;;6.33;2.97;;;;;10.10;94692.00;;;;7392437;19;20152;-78
2022/06/10 03:38:54;;;;;;;6.53;2.97;;;;;10.20;94685.00;;;;7392636;19;20186;-76
2022/06/10 03:41:33;;;;;;;6.43;2.77;;;;;10.30;94689.00;;;;7391577;19;20152;-78
2022/06/10 03:44:17;;;;;;;7.40;2.93;;;;;10.20;94692.00;;;;7393030;19;20137;-77
2022/06/10 03:46:48;;;;;;;11.80;3.00;;;;;10.10;94691.00;;;;7391348;19;20156;-77
2022/06/10 03:49:34;;;;;;;6.78;2.80;;;;;9.90;94705.00;;;;7392550;19;20168;-76
2022/06/10 03:52:15;;;;;;;9.20;3.00;;;;;10.00;94707.00;;;;7391312;19;20153;-77
2022/06/10 03:54:49;;;;;;;6.10;2.58;;;;;10.10;94700.00;;;;7392542;19;20159;-77
2022/06/10 03:57:17;;;;;;;4.57;2.10;;;;;10.10;94702.00;;;;7392339;19;20147;-77
2022/06/10 03:59:48;;;;;;;6.10;2.67;;;;;10.40;94707.00;;;;7392691;19;20136;-76
2022/06/10 04:02:22;;;;;;;12.45;3.10;;;;;10.20;94703.00;;;;7390468;19;20146;-77
2022/06/10 04:04:51;;;;;;;7.00;2.50;;;;;10.20;94713.00;;;;7391491;19;20244;-77
2022/06/10 04:07:21;;;;;;;4.18;2.53;;;;;10.20;94718.00;;;;7390937;19;20152;-77
2022/06/10 04:09:55;;;;;;;5.00;2.40;;;;;10.20;94718.00;;;;7391082;19;20136;-77
2022/06/10 04:12:23;;;;;;;3.88;2.17;;;;;10.30;94717.00;;;;7389912;19;20526;-77
2022/06/10 04:14:50;;;;;;;3.83;2.20;;;;;10.30;94721.00;;;;7388589;19;20173;-77
2022/06/10 04:17:25;;;;;;;3.78;1.90;;;;;10.50;94719.00;;;;7390796;19;20124;-77
2022/06/10 04:19:53;;;;;;;5.30;2.53;;;;;10.40;94727.00;;;;7388707;19;20157;-77
2022/06/10 04:22:24;;;;;;;5.07;2.20;;;;;10.40;94732.00;;;;7388819;19;20249;-77
2022/06/10 04:24:58;;;;;;;5.53;1.92;;;;;10.60;94727.00;;;;7392040;19;20152;-77
2022/06/10 04:27:27;;;;;;;5.03;2.10;;;;;10.60;94722.00;;;;7390577;19;20152;-78
2022/06/10 04:29:55;;;;;;;8.38;2.05;;;;;10.60;94719.00;;;;7390552;19;20233;-76
2022/06/10 04:32:28;;;;;;;5.85;2.30;;;;;10.70;94723.00;;;;7389418;19;20145;-78
2022/06/10 04:34:59;;;;;;;6.40;2.20;;;;;10.80;94726.00;;;;7392618;19;20588;-76
2022/06/10 04:37:27;;;;;;;7.20;2.42;;;;;10.90;94727.00;;;;7392729;19;20170;-76
2022/06/10 04:40:02;;;;;;;6.35;2.08;;;;;11.00;94733.00;;;;7389402;19;20156;-76
2022/06/10 04:42:29;;;;;;;4.50;2.05;;;;;11.30;94725.00;;;;7389962;19;20148;-78
2022/06/10 04:45:13;;;;;;;6.47;2.35;;;;;11.40;94733.00;;;;7389167;19;20256;-77
2022/06/10 04:47:54;;;;;;;2.70;1.90;;;;;11.60;94736.00;;;;7391932;19;20136;-77
2022/06/10 04:50:27;;;;;;;6.35;2.10;;;;;11.70;94737.00;;;;7391634;19;20466;-77
2022/06/10 04:53:08;;;;;;;5.72;2.33;;;;;11.70;94738.00;;;;7388588;19;20616;-78
2022/06/10 04:55:36;;;;;;;8.73;2.13;;;;;11.90;94743.00;;;;7390480;19;20642;-77
2022/06/10 04:58:11;;;;;;;6.30;2.10;;;;;12.20;94732.00;;;;7390835;19;21922;-77
2022/06/10 05:00:45;;;;;;;7.40;2.17;;;;;12.10;94733.00;;;;7390114;19;20137;-78
2022/06/10 05:03:19;;;;;;;5.30;1.95;;;;;12.30;94733.00;;;;7390020;19;20207;-78
2022/06/10 05:05:46;;;;;;;3.47;2.03;;;;;12.40;94739.00;;;;7390134;19;20155;-77
2022/06/10 05:08:16;;;;;;;4.70;1.90;;;;;12.60;94739.00;;;;7391772;19;20602;-76
2022/06/10 05:10:50;;;;;;;4.78;2.22;;;;;13.00;94739.00;;;;7390557;19;21167;-77
2022/06/10 05:13:20;;;;;;;4.95;1.77;;;;;13.10;94740.00;;;;7388287;19;20184;-78
2022/06/10 05:15:49;;;;;;;5.15;1.90;;;;;13.30;94744.00;;;;7389500;19;20610;-78
2022/06/10 05:18:25;;;;;;;2.40;1.52;;;;;13.60;94736.00;;;;7390165;19;20159;-79
2022/06/10 05:20:53;;;;;;;5.45;2.20;;;;;13.80;94737.00;;;;7388895;19;20189;-77
2022/06/10 05:23:23;;;;;;;7.50;1.65;;;;;14.00;94744.00;;;;7389167;19;20636;-77
2022/06/10 05:25:57;;;;;;;7.22;2.30;;;;;14.20;94742.00;;;;7388648;19;20152;-78
2022/06/10 05:28:25;;;;;;;4.10;1.98;;;;;14.30;94743.00;;;;7389425;19;20151;-78
2022/06/10 05:30:53;;;;;;;3.83;1.90;;;;;14.40;94740.00;;;;7389314;19;20597;-78
2022/06/10 05:36:20;;;;;;;4.00;1.85;;;;;14.80;94747.00;;;;7387979;19;20491;-76
2022/06/10 05:38:55;;;;;;;3.85;1.60;;;;;14.90;94750.00;;;;7389012;19;20148;-78
2022/06/10 05:44:15;;;;;;;3.10;1.33;;;;;15.40;94745.00;;;;7388098;19;20152;-76
2022/06/10 05:46:43;;;;;;;5.68;1.45;;;;;15.60;94741.00;;;;7389415;19;20148;-77
2022/06/10 05:49:10;;;;;;;4.78;1.50;;;;;15.50;94746.00;;;;7388232;19;20141;-77
2022/06/10 05:51:52;;;;;;;5.75;1.50;;;;;15.70;94741.00;;;;7385863;19;20171;-77
2022/06/10 05:54:27;;;;;;;4.25;1.55;;;;;16.10;94748.00;;;;7387789;19;20144;-77
2022/06/10 05:57:01;;;;;;;3.10;1.40;;;;;16.10;94742.00;;;;7388126;19;20151;-78
2022/06/10 05:59:33;;;;;;;8.40;1.50;;;;;16.10;94746.00;;;;7388670;19;20152;-77
2022/06/10 06:02:02;;;;;;;4.85;1.52;;;;;16.40;94749.00;;;;7388464;19;20148;-79
2022/06/10 06:04:37;;;;;;;5.47;1.33;;;;;16.40;94755.00;;;;7386560;19;20153;-78
2022/06/10 06:07:05;;;;;;;4.03;1.45;;;;;16.40;94749.00;;;;7387198;19;20163;-78
2022/06/10 06:09:34;;;;;;;7.13;1.50;;;;;16.70;94755.00;;;;7389545;19;20150;-78
2022/06/10 06:12:09;;;;;;;3.95;1.70;;;;;16.80;94754.00;;;;7387202;19;20161;-77
2022/06/10 06:14:39;;;;;;;6.47;1.80;;;;;16.90;94751.00;;;;7386715;19;20577;-77
2022/06/10 06:17:10;;;;;;;6.47;1.60;;;;;16.90;94756.00;;;;7386689;19;20168;-77
2022/06/10 06:19:44;;;;;;;2.20;1.10;;;;;17.10;94763.00;;;;7386794;19;20156;-78
2022/06/10 06:22:14;;;;;;;5.53;1.58;;;;;17.00;94762.00;;;;7385820;19;20152;-79
2022/06/10 06:24:42;;;;;;;5.80;1.70;;;;;17.10;94764.00;;;;7386126;19;20220;-77
2022/06/10 06:27:18;;;;;;;3.72;1.70;;;;;17.30;94767.00;;;;7386541;19;20156;-77
2022/06/10 06:29:50;;;;;;;3.28;1.20;;;;;17.20;94768.00;;;;7384728;19;20533;-77
2022/06/10 06:32:24;;;;;;;3.10;1.35;;;;;17.20;94772.00;;;;7384624;19;20174;-79
2022/06/10 06:34:52;;;;;;;3.45;1.33;;;;;17.20;94776.00;;;;7386324;19;20615;-77
2022/06/10 06:37:21;;;;;;;6.00;1.80;;;;;17.50;94766.00;;;;7387054;19;20149;-78
2022/06/10 06:39:55;;;;;;;3.55;1.50;;;;;17.90;94772.00;;;;7388619;19;20174;-78
2022/06/10 06:42:23;;;;;;;6.72;1.52;;;;;17.80;94773.00;;;;7388065;19;20603;-76
2022/06/10 06:44:51;;;;;;;6.88;1.70;;;;;17.80;94770.00;;;;7394724;19;20128;-78
2022/06/10 06:47:46;;;;;;;3.20;1.45;;;;;18.10;94771.00;;;;7391429;19;20505;-77
2022/06/10 06:50:16;;;;;;;4.10;1.60;;;;;18.20;94775.00;;;;7392319;19;20167;-77
2022/06/10 06:52:58;;;;;;;6.75;1.70;;;;;18.60;94775.00;;;;7389230;19;20168;-78
2022/06/10 06:55:41;;;;;;;2.97;1.58;;;;;18.20;94783.00;;;;7393224;19;20201;-77
2022/06/10 06:58:18;;;;;;;7.97;1.55;;;;;18.70;94781.00;;;;7390330;19;20204;-77
2022/06/10 07:00:47;;;;;;;4.95;1.40;;;;;18.80;94774.00;;;;7390184;19;20151;-77
2022/06/10 07:03:16;;;;;;;5.45;1.65;;;;;18.70;94782.00;;;;7392307;19;20183;-76
2022/06/10 07:05:52;;;;;;;4.20;1.50;;;;;18.50;94780.00;;;;7389228;19;20144;-77
2022/06/10 07:08:20;;;;;;;2.97;1.42;;;;;18.50;94777.00;;;;7389248;19;20148;-76
2022/06/10 07:10:47;;;;;;;7.20;1.95;;;;;18.40;94786.00;;;;7389709;19;20133;-74
2022/06/10 07:13:22;;;;;;;4.93;1.75;;;;;18.90;94779.00;;;;7388854;19;20128;-77
2022/06/10 07:15:50;;;;;;;7.65;2.15;;;;;19.10;94787.00;;;;7391926;19;20177;-77
2022/06/10 07:18:18;;;;;;;8.40;1.80;;;;;19.10;94778.00;;;;7390482;19;20164;-76
2022/06/10 07:20:52;;;;;;;3.50;1.65;;;;;19.50;94787.00;;;;7391051;19;20612;-77
2022/06/10 07:23:19;;;;;;;4.88;1.88;;;;;19.70;94780.00;;;;7389920;19;20156;-75
2022/06/10 07:25:47;;;;;;;6.22;2.25;;;;;19.30;94791.00;;;;7390004;19;20767;-77
2022/06/10 07:28:23;;;;;;;8.32;2.03;;;;;19.10;94786.00;;;;7389719;19;20148;-76
2022/06/10 07:30:51;;;;;;;7.15;1.63;;;;;19.60;94791.00;;;;7389433;19;20559;-76
2022/06/10 07:33:18;;;;;;;3.35;1.60;;;;;19.60;94792.00;;;;7388222;19;20167;-76
2022/06/10 07:35:53;;;;;;;3.78;1.60;;;;;19.20;94787.00;;;;7390292;19;20132;-76
2022/06/10 07:38:22;;;;;;;4.07;1.45;;;;;19.20;94787.00;;;;7388328;19;20672;-76
2022/06/10 07:43:44;;;;;;;3.47;1.30;;;;;19.70;94786.00;;;;7391496;19;20145;-76
2022/06/10 07:46:16;;;;;;;6.80;1.63;;;;;19.80;94786.00;;;;7389917;19;20149;-76
2022/06/10 07:48:51;;;;;;;4.82;2.00;;;;;19.90;94787.00;;;;7389613;19;20139;-77
2022/06/10 07:51:20;;;;;;;4.93;1.95;;;;;20.10;94780.00;;;;7390054;19;20139;-75
2022/06/10 07:53:49;;;;;;;8.90;1.73;;;;;20.20;94779.00;;;;7387373;19;20172;-75
2022/06/10 07:56:23;;;;;;;3.63;1.45;;;;;20.20;94781.00;;;;7390128;19;20622;-79
2022/06/10 07:58:53;;;;;;;5.53;1.40;;;;;20.40;94777.00;;;;7391030;19;20593;-78
2022/06/10 08:01:22;;;;;;;4.93;1.65;;;;;20.00;94783.00;;;;7389589;19;20584;-76
2022/06/10 08:03:58;;;;;;;8.10;1.60;;;;;19.70;94777.00;;;;7389685;19;20148;-78
2022/06/10 08:06:28;;;;;;;6.03;1.63;;;;;20.00;94775.00;;;;7389362;19;20151;-78
2022/06/10 08:08:56;;;;;;;4.50;1.85;;;;;20.30;94779.00;;;;7389682;19;20129;-77
2022/06/10 08:11:30;;;;;;;8.40;2.17;;;;;20.80;94780.00;;;;7388776;19;20155;-74
2022/06/10 08:13:58;;;;;;;6.60;2.03;;;;;21.20;94772.00;;;;7387320;19;20125;-75
2022/06/10 08:16:26;;;;;;;4.32;1.80;;;;;21.10;94792.00;;;;7390011;19;20157;-77
2022/06/10 08:19:00;;;;;;;4.05;1.60;;;;;20.10;94804.00;;;;7389322;19;20128;-76
2022/06/10 08:24:23;;;;;;;5.38;1.70;;;;;19.10;94784.00;;;;7390146;19;20609;-77
2022/06/10 08:26:51;;;;;;;4.30;1.50;;;;;19.30;94782.00;;;;7390725;19;20588;-76
2022/06/10 08:29:19;;;;;;;5.75;1.75;;;;;19.90;94773.00;;;;7390341;19;20154;-76
2022/06/10 08:31:53;;;;;;;3.70;2.03;;;;;20.60;94772.00;;;;7388560;19;20129;-75
2022/06/10 08:34:21;;;;;;;5.45;1.75;;;;;21.00;94779.00;;;;7385534;19;20136;-76
2022/06/10 08:36:48;;;;;;;7.05;2.80;;;;;21.20;94773.00;;;;7388970;19;20640;-76
2022/06/10 08:39:23;;;;;;;4.80;1.50;;;;;21.20;94778.00;;;;7388715;19;20927;-74
2022/06/10 08:42:13;;;;;;;3.63;1.38;;;;;21.10;94780.00;;;;7389325;19;20153;-75
2022/06/10 08:44:59;;;;;;;4.82;1.60;;;;;21.80;94773.00;;;;7389023;19;20133;-76
2022/06/10 08:47:51;;;;;;;5.28;1.60;;;;;22.50;94774.00;;;;7390553;19;20132;-76
2022/06/10 08:50:44;;;;;;;4.20;1.35;;;;;22.60;94777.00;;;;7388104;19;20212;-76
2022/06/10 08:53:37;;;;;;;8.70;1.80;;;;;22.60;94786.00;;;;7386007;19;20152;-75
2022/06/10 08:56:26;;;;;;;3.33;1.50;;;;;21.00;94805.00;;;;7389648;19;20125;-77
2022/06/10 08:59:20;;;;;;;2.92;1.50;;;;;20.80;94780.00;;;;7389010;19;20148;-75
2022/06/10 09:02:28;;;;;;;5.05;1.80;;;;;21.70;94777.00;;;;7389155;19;20152;-75
2022/06/10 09:05:13;;;;;;;3.92;1.50;;;;;21.80;94773.00;;;;7389117;19;20133;-76
2022/06/10 09:07:52;;;;;;;3.40;1.48;;;;;21.20;94796.00;;;;7387726;19;20498;-74
2022/06/10 09:10:30;;;;;;;4.30;1.75;;;;;20.80;94784.00;;;;7390844;19;20815;-75
2022/06/10 09:13:30;;;;;;;8.27;1.52;;;;;21.10;94789.00;;;;7388288;19;20141;-75
2022/06/10 09:16:13;;;;;;;4.90;1.52;;;;;21.00;94793.00;;;;7389267;19;20620;-75
2022/06/10 09:19:05;;;;;;;5.28;2.08;;;;;20.30;94810.00;;;;7389323;19;20140;-76
2022/06/10 09:22:06;;;;;;;5.47;1.80;;;;;19.80;94819.00;;;;7388097;19;20176;-75
2022/06/10 09:25:02;;;;;;;6.07;2.08;;;;;19.40;94823.00;;;;7387841;19;20156;-77
2022/06/10 09:27:39;;;;;;;4.30;2.00;;;;;19.10;94834.00;;;;7389472;19;20648;-74
2022/06/10 09:30:18;;;;;;;4.35;1.98;;;;;18.60;94830.00;;;;7388561;19;20156;-75
2022/06/10 09:33:01;;;;;;;3.63;1.83;;;;;18.50;94826.00;;;;7387911;19;20160;-76
2022/06/10 09:36:05;;;;;;;4.00;1.80;;;;;18.30;94836.00;;;;7389798;19;20133;-76
2022/06/10 09:40:35;;;;;;;10.63;1.88;;;;;18.60;94829.00;;;;7387787;19;20624;-77
2022/06/10 09:42:08;;;;;;;5.80;1.80;;;;;18.80;94828.00;;;;7388312;19;20144;-77
2022/06/10 09:45:11;;;;;;;4.70;1.85;;;;;18.80;94838.00;;;;7388413;19;20551;-77
2022/06/10 09:48:11;;;;;;;4.22;1.88;;;;;18.80;94842.00;;;;7387885;19;20191;-75
2022/06/10 09:50:58;;;;;;;4.38;1.70;;;;;18.80;94835.00;;;;7387179;19;20152;-76
2022/06/10 09:53:48;;;;;;;4.30;1.50;;;;;18.80;94836.00;;;;7386513;19;20164;-76
2022/06/10 09:56:34;;;;;;;4.22;1.77;;;;;19.20;94828.00;;;;7386965;19;20150;-75
2022/06/10 09:59:42;;;;;;;4.85;1.73;;;;;18.90;94828.00;;;;7386715;19;20237;-76
2022/06/10 10:02:28;;;;;;;5.13;1.60;;;;;19.50;94826.00;;;;7387018;19;20612;-76
2022/06/10 10:05:45;;;;;;;3.97;1.83;;;;;20.20;94821.00;;;;7386355;19;20178;-75
2022/06/10 10:08:31;;;;;;;4.78;1.90;;;;;20.30;94815.00;;;;7384933;19;20136;-77
2022/06/10 10:11:38;;;;;;;5.45;1.95;;;;;20.50;94810.00;;;;7385002;19;20149;-74
2022/06/10 10:14:24;;;;;;;3.60;1.45;;;;;20.70;94810.00;;;;7385111;19;20169;-76
2022/06/10 10:17:37;;;;;;;4.65;1.85;;;;;19.90;94804.00;;;;7391076;19;20816;-75
2022/06/10 10:20:26;;;;;;;4.32;1.73;;;;;20.30;94800.00;;;;7396414;19;20152;-76
2022/06/10 10:23:15;;;;;;;4.63;1.80;;;;;20.40;94805.00;;;;7394211;19;20208;-76
2022/06/10 10:25:47;;;;;;;3.63;1.92;;;;;20.30;94810.00;;;;7392562;19;20152;-77
2022/06/10 10:28:32;;;;;;;6.22;1.95;;;;;20.10;94803.00;;;;7393008;19;20476;-75
2022/06/10 10:31:15;;;;;;;3.45;1.50;;;;;20.30;94813.00;;;;7392576;19;20160;-78
2022/06/10 10:33:57;;;;;;;4.53;2.00;;;;;20.40;94806.00;;;;7389787;19;20751;-76
2022/06/10 10:36:25;;;;;;;5.35;1.80;;;;;20.10;94812.00;;;;7393525;19;20160;-76
2022/06/10 10:39:35;;;;;;;6.25;1.98;;;;;20.10;94818.00;;;;7392966;19;20468;-76
2022/06/10 10:42:16;;;;;;;5.25;1.67;;;;;20.40;94812.00;;;;7392231;19;20224;-78
2022/06/10 10:45:05;;;;;;;5.68;2.10;;;;;20.30;94810.00;;;;7392170;19;20591;-77
2022/06/10 10:47:35;;;;;;;5.85;1.63;;;;;20.50;94809.00;;;;7392126;19;20166;-76
2022/06/10 10:50:29;;;;;;;4.25;1.60;;;;;20.70;94813.00;;;;7393022;19;20152;-76
2022/06/10 10:53:47;;;;;;;4.43;1.80;;;;;21.10;94811.00;;;;7391140;19;20216;-77
2022/06/10 10:56:36;;;;;;;5.55;1.60;;;;;21.60;94810.00;;;;7391385;19;20149;-75
2022/06/10 10:59:05;;;;;;;4.53;1.75;;;;;21.60;94809.00;;;;7392208;19;20891;-76
2022/06/10 11:01:47;;;;;;;5.93;1.67;;;;;21.50;94794.00;;;;7391495;19;20132;-76
2022/06/10 11:04:23;;;;;;;4.40;1.67;;;;;22.40;94776.00;;;;7389353;19;20584;-77
2022/06/10 11:07:14;;;;;;;4.10;2.08;;;;;23.80;94772.00;;;;7391133;19;20153;-76
2022/06/10 11:10:17;;;;;;;3.53;1.75;;;;;25.40;94775.00;;;;7390247;19;20643;-75
2022/06/10 11:12:52;;;;;;;6.55;1.90;;;;;26.60;94774.00;;;;7390833;19;20188;-77
2022/06/10 11:15:27;;;;;;;5.38;2.08;;;;;26.20;94793.00;;;;7391383;19;20501;-77
2022/06/10 11:18:04;;;;;;;4.82;1.77;;;;;25.40;94797.00;;;;7392844;19;20149;-76
2022/06/10 11:20:36;;;;;;;5.22;1.40;;;;;24.40;94782.00;;;;7391509;19;20139;-76
2022/06/10 11:23:31;;;;;;;5.43;1.70;;;;;24.40;94781.00;;;;7392214;19;20135;-77
2022/06/10 11:26:12;;;;;;;4.03;1.50;;;;;25.30;94769.00;;;;7392640;19;20133;-77
2022/06/10 11:29:03;;;;;;;5.10;1.92;;;;;24.60;94804.00;;;;7389568;19;20163;-76
2022/06/10 11:31:39;;;;;;;3.50;1.67;;;;;23.20;94806.00;;;;7391074;19;20146;-77
2022/06/10 11:34:25;;;;;;;5.90;1.90;;;;;22.60;94805.00;;;;7391062;19;20152;-74
2022/06/10 11:36:56;;;;;;;6.22;1.83;;;;;22.00;94814.00;;;;7390652;19;20152;-75
2022/06/10 11:39:33;;;;;;;5.53;2.03;;;;;21.50;94810.00;;;;7391854;19;20541;-75
2022/06/10 11:42:09;;;;;;;3.08;1.67;;;;;21.50;94809.00;;;;7393435;19;20133;-77
2022/06/10 11:44:47;;;;;;;4.55;1.90;;;;;21.30;94796.00;;;;7391908;19;20150;-76
2022/06/10 11:48:16;;;;;;;3.20;1.60;;;;;21.70;94796.00;;;;7392409;19;20145;-77
2022/06/10 11:51:04;;;;;;;3.72;1.50;;;;;22.20;94791.00;;;;7389183;19;20152;-75
2022/06/10 11:54:04;;;;;;;3.53;1.60;;;;;22.30;94793.00;;;;7389452;19;20236;-76
2022/06/10 12:00:18;;;;;;;5.78;1.60;;;;;22.30;94783.00;;;;7391230;19;20612;-76
2022/06/10 12:02:56;;;;;;;5.47;1.83;;;;;22.20;94785.00;;;;7391699;19;20156;-76
2022/06/10 12:05:42;;;;;;;2.08;1.42;;;;;21.70;94775.00;;;;7392068;19;20519;-77
2022/06/10 12:08:51;;;;;;;4.68;1.80;;;;;21.40;94789.00;;;;7392812;19;20153;-76
2022/06/10 12:11:46;;;;;;;7.35;2.00;;;;;21.40;94784.00;;;;7393458;19;20180;-76
2022/06/10 12:14:45;;;;;;;5.57;1.70;;;;;21.40;94780.00;;;;7390370;19;21102;-76
2022/06/10 12:17:33;;;;;;;6.45;1.77;;;;;21.20;94784.00;;;;7390486;19;20785;-75
2022/06/10 12:20:41;;;;;;;5.30;1.50;;;;;21.70;94756.00;;;;7391332;19;20148;-77
2022/06/10 12:23:37;;;;;;;2.95;1.27;;;;;22.60;94770.00;;;;7390404;19;20512;-76
2022/06/10 12:26:28;;;;;;;5.15;1.50;;;;;22.40;94774.00;;;;7390172;19;20136;-75
2022/06/10 12:29:15;;;;;;;3.65;1.45;;;;;22.10;94761.00;;;;7389352;19;20137;-75
2022/06/10 12:32:13;;;;;;;7.82;1.70;;;;;21.50;94772.00;;;;7384123;19;20144;-75
2022/06/10 12:34:53;;;;;;;7.97;1.67;;;;;21.00;94776.00;;;;7385494;19;20833;-75
2022/06/10 12:37:36;;;;;;;3.22;1.48;;;;;21.10;94770.00;;;;7386996;19;20170;-74
2022/06/10 12:40:34;;;;;;;5.10;1.80;;;;;20.80;94777.00;;;;7387195;19;20156;-75
2022/06/10 12:43:29;;;;;;;5.30;1.85;;;;;20.40;94772.00;;;;7390282;19;20152;-74
2022/06/10 12:46:02;;;;;;;2.85;1.55;;;;;20.70;94776.00;;;;7389094;19;20555;-74
2022/06/10 12:48:46;;;;;;;5.85;1.85;;;;;20.90;94768.00;;;;7387145;19;20499;-74
2022/06/10 12:51:17;;;;;;;2.55;1.55;;;;;21.20;94755.00;;;;7389043;19;20145;-74
2022/06/10 12:54:08;;;;;;;6.60;1.60;;;;;21.50;94767.00;;;;7387647;19;20148;-75
2022/06/10 12:56:37;;;;;;;8.18;1.75;;;;;21.10;94761.00;;;;7390987;19;20124;-75
2022/06/10 12:59:24;;;;;;;4.78;1.80;;;;;21.50;94759.00;;;;7389116;19;20160;-75
2022/06/10 13:01:52;;;;;;;4.93;1.95;;;;;21.60;94763.00;;;;7388874;19;20140;-74
2022/06/10 13:04:29;;;;;;;4.70;1.52;;;;;21.90;94759.00;;;;7388012;19;20139;-75
2022/06/10 13:07:00;;;;;;;5.72;1.70;;;;;22.40;94747.00;;;;7387503;19;20615;-75
2022/06/10 13:09:39;;;;;;;4.55;1.50;;;;;23.60;94725.00;;;;7389116;19;20149;-76
2022/06/10 13:12:12;;;;;;;3.67;1.67;;;;;25.20;94719.00;;;;7387742;19;20148;-75
2022/06/10 13:15:30;;;;;;;2.83;1.35;;;;;25.70;94717.00;;;;7387107;19;20152;-75
2022/06/10 13:18:25;;;;;;;4.45;1.60;;;;;25.40;94738.00;;;;7388761;19;20611;-76
2022/06/10 13:21:14;;;;;;;5.00;1.85;;;;;25.70;94726.00;;;;7387677;19;20184;-75
2022/06/10 13:24:12;;;;;;;3.17;1.75;;;;;24.20;94745.00;;;;7388391;19;20927;-76
2022/06/10 13:26:47;;;;;;;3.90;1.67;;;;;23.60;94737.00;;;;7388485;19;20144;-77
2022/06/10 13:29:20;;;;;;;3.60;1.40;;;;;24.20;94726.00;;;;7388902;19;20173;-77
2022/06/10 13:31:58;;;;;;;4.78;1.55;;;;;24.50;94727.00;;;;7388132;19;20621;-75
2022/06/10 13:34:38;;;;;;;4.00;1.50;;;;;25.50;94736.00;;;;7387095;19;20173;-76
2022/06/10 13:37:20;;;;;;;5.18;2.00;;;;;26.00;94729.00;;;;7386615;19;20183;-77
2022/06/10 13:39:50;;;;;;;3.58;1.98;;;;;25.30;94722.00;;;;7388392;19;20628;-75
2022/06/10 13:42:30;;;;;;;3.78;1.63;;;;;25.90;94724.00;;;;7388328;19;20178;-77